sensor_id;sensor_type;location;lat;lon;timestamp;P1;durP1;ratioP1;P2;durP2;ratioP2
33579;SDS011;19909;43.644;-79.438;2023-04-30T00:01:50;1.25;;;0.88;;
33579;SDS011;19909;43.644;-79.438;2023-04-30T00:04:16;1.48;;;1.10;;
33579;SDS011;19909;43.644;-79.438;2023-04-30T00:06:42;1.80;;;1.08;;
33579;SDS011;19909;43.644;-79.438;2023-04-30T00:09:08;1.13;;;0.80;;
33579;SDS011;19909;43.644;-79.438;2023-04-30T00:11:35;0.93;;;0.80;;
33579;SDS011;19909;43.644;-79.438;2023-04-30T00:14:01;0.80;;;0.80;;
33579;SDS011;19909;43.644;-79.438;2023-04-30T00:16:27;0.90;;;0.75;;
33579;SDS011;19909;43.644;-79.438;2023-04-30T00:18:54;0.90;;;0.73;;
33579;SDS011;19909;43.644;-79.438;2023-04-30T00:21:20;1.30;;;0.98;;
33579;SDS011;19909;43.644;-79.438;2023-04-30T00:23:46;1.20;;;0.57;;
33579;SDS011;19909;43.644;-79.438;2023-04-30T00:26:12;1.00;;;0.80;;
33579;SDS011;19909;43.644;-79.438;2023-04-30T00:28:39;0.82;;;0.80;;
33579;SDS011;19909;43.644;-79.438;2023-04-30T00:31:05;1.10;;;0.95;;
33579;SDS011;19909;43.644;-79.438;2023-04-30T00:33:33;1.15;;;0.90;;
33579;SDS011;19909;43.644;-79.438;2023-04-30T00:35:59;1.08;;;0.63;;
33579;SDS011;19909;43.644;-79.438;2023-04-30T00:38:26;1.10;;;1.00;;
33579;SDS011;19909;43.644;-79.438;2023-04-30T00:40:52;1.25;;;0.90;;
33579;SDS011;19909;43.644;-79.438;2023-04-30T00:43:18;0.95;;;0.80;;
33579;SDS011;19909;43.644;-79.438;2023-04-30T00:45:44;1.35;;;1.10;;
33579;SDS011;19909;43.644;-79.438;2023-04-30T00:48:10;1.02;;;0.82;;
33579;SDS011;19909;43.644;-79.438;2023-04-30T00:50:37;0.82;;;0.77;;
33579;SDS011;19909;43.644;-79.438;2023-04-30T00:53:04;1.08;;;0.93;;
33579;SDS011;19909;43.644;-79.438;2023-04-30T00:55:30;1.10;;;0.70;;
33579;SDS011;19909;43.644;-79.438;2023-04-30T00:57:57;1.00;;;0.80;;
33579;SDS011;19909;43.644;-79.438;2023-04-30T01:00:25;1.25;;;0.75;;
33579;SDS011;19909;43.644;-79.438;2023-04-30T01:02:52;1.13;;;1.00;;
33579;SDS011;19909;43.644;-79.438;2023-04-30T01:05:19;0.80;;;0.70;;
33579;SDS011;19909;43.644;-79.438;2023-04-30T01:07:47;1.02;;;0.93;;
33579;SDS011;19909;43.644;-79.438;2023-04-30T01:10:14;0.98;;;0.70;;
33579;SDS011;19909;43.644;-79.438;2023-04-30T01:15:41;0.77;;;0.77;;
33579;SDS011;19909;43.644;-79.438;2023-04-30T01:18:24;1.00;;;0.90;;
33579;SDS011;19909;43.644;-79.438;2023-04-30T01:21:08;1.00;;;0.77;;
33579;SDS011;19909;43.644;-79.438;2023-04-30T01:29:07;0.75;;;0.70;;
33579;SDS011;19909;43.644;-79.438;2023-04-30T01:31:34;0.82;;;0.82;;
33579;SDS011;19909;43.644;-79.438;2023-04-30T01:34:00;1.00;;;0.90;;
33579;SDS011;19909;43.644;-79.438;2023-04-30T01:39:07;0.77;;;0.68;;
33579;SDS011;19909;43.644;-79.438;2023-04-30T01:45:06;1.05;;;0.68;;
33579;SDS011;19909;43.644;-79.438;2023-04-30T01:47:46;0.82;;;0.65;;
33579;SDS011;19909;43.644;-79.438;2023-04-30T01:50:43;0.88;;;0.60;;
33579;SDS011;19909;43.644;-79.438;2023-04-30T01:53:16;1.23;;;0.70;;
33579;SDS011;19909;43.644;-79.438;2023-04-30T01:55:50;1.02;;;0.73;;
33579;SDS011;19909;43.644;-79.438;2023-04-30T01:58:22;0.80;;;0.68;;
33579;SDS011;19909;43.644;-79.438;2023-04-30T02:00:50;1.20;;;0.90;;
33579;SDS011;19909;43.644;-79.438;2023-04-30T02:03:16;0.93;;;0.50;;
33579;SDS011;19909;43.644;-79.438;2023-04-30T02:05:42;1.23;;;0.65;;
33579;SDS011;19909;43.644;-79.438;2023-04-30T02:08:09;0.80;;;0.75;;
33579;SDS011;19909;43.644;-79.438;2023-04-30T02:10:35;1.35;;;0.85;;
33579;SDS011;19909;43.644;-79.438;2023-04-30T02:13:01;0.90;;;0.80;;
33579;SDS011;19909;43.644;-79.438;2023-04-30T02:15:27;0.60;;;0.60;;
33579;SDS011;19909;43.644;-79.438;2023-04-30T02:17:53;0.93;;;0.73;;
33579;SDS011;19909;43.644;-79.438;2023-04-30T02:20:20;0.85;;;0.65;;
33579;SDS011;19909;43.644;-79.438;2023-04-30T02:22:46;1.45;;;1.00;;
33579;SDS011;19909;43.644;-79.438;2023-04-30T02:25:12;1.08;;;0.88;;
33579;SDS011;19909;43.644;-79.438;2023-04-30T02:27:39;0.85;;;0.63;;
33579;SDS011;19909;43.644;-79.438;2023-04-30T02:30:05;0.85;;;0.70;;
33579;SDS011;19909;43.644;-79.438;2023-04-30T02:32:32;0.63;;;0.40;;
33579;SDS011;19909;43.644;-79.438;2023-04-30T02:34:58;1.52;;;0.50;;
33579;SDS011;19909;43.644;-79.438;2023-04-30T02:37:25;0.85;;;0.65;;
33579;SDS011;19909;43.644;-79.438;2023-04-30T02:39:51;0.65;;;0.50;;
33579;SDS011;19909;43.644;-79.438;2023-04-30T02:42:18;1.05;;;0.75;;
33579;SDS011;19909;43.644;-79.438;2023-04-30T02:44:44;1.17;;;0.82;;
33579;SDS011;19909;43.644;-79.438;2023-04-30T02:47:10;0.93;;;0.55;;
33579;SDS011;19909;43.644;-79.438;2023-04-30T02:49:36;0.90;;;0.80;;
33579;SDS011;19909;43.644;-79.438;2023-04-30T02:52:03;0.90;;;0.68;;
33579;SDS011;19909;43.644;-79.438;2023-04-30T02:54:29;1.23;;;0.90;;
33579;SDS011;19909;43.644;-79.438;2023-04-30T02:56:55;0.80;;;0.60;;
33579;SDS011;19909;43.644;-79.438;2023-04-30T02:59:21;0.77;;;0.60;;
33579;SDS011;19909;43.644;-79.438;2023-04-30T03:01:47;0.98;;;0.70;;
33579;SDS011;19909;43.644;-79.438;2023-04-30T03:04:13;0.88;;;0.60;;
33579;SDS011;19909;43.644;-79.438;2023-04-30T03:06:40;0.85;;;0.80;;
33579;SDS011;19909;43.644;-79.438;2023-04-30T03:09:06;0.98;;;0.88;;
33579;SDS011;19909;43.644;-79.438;2023-04-30T03:11:32;0.77;;;0.70;;
33579;SDS011;19909;43.644;-79.438;2023-04-30T03:14:01;1.80;;;0.80;;
33579;SDS011;19909;43.644;-79.438;2023-04-30T03:16:29;1.20;;;0.85;;
33579;SDS011;19909;43.644;-79.438;2023-04-30T03:18:55;1.00;;;0.80;;
33579;SDS011;19909;43.644;-79.438;2023-04-30T03:21:21;1.00;;;0.77;;
33579;SDS011;19909;43.644;-79.438;2023-04-30T03:23:47;0.93;;;0.77;;
33579;SDS011;19909;43.644;-79.438;2023-04-30T03:26:14;1.02;;;0.80;;
33579;SDS011;19909;43.644;-79.438;2023-04-30T03:28:40;1.25;;;0.90;;
33579;SDS011;19909;43.644;-79.438;2023-04-30T03:31:06;1.85;;;1.13;;
33579;SDS011;19909;43.644;-79.438;2023-04-30T03:33:32;1.00;;;0.90;;
33579;SDS011;19909;43.644;-79.438;2023-04-30T03:35:58;1.02;;;0.93;;
33579;SDS011;19909;43.644;-79.438;2023-04-30T03:38:25;1.35;;;0.93;;
33579;SDS011;19909;43.644;-79.438;2023-04-30T03:40:51;1.17;;;1.00;;
33579;SDS011;19909;43.644;-79.438;2023-04-30T03:43:17;1.00;;;0.82;;
33579;SDS011;19909;43.644;-79.438;2023-04-30T03:45:43;1.23;;;0.82;;
33579;SDS011;19909;43.644;-79.438;2023-04-30T03:48:09;1.10;;;0.90;;
33579;SDS011;19909;43.644;-79.438;2023-04-30T03:50:36;1.27;;;0.80;;
33579;SDS011;19909;43.644;-79.438;2023-04-30T03:53:02;0.98;;;0.88;;
33579;SDS011;19909;43.644;-79.438;2023-04-30T03:55:28;1.05;;;0.95;;
33579;SDS011;19909;43.644;-79.438;2023-04-30T03:57:54;1.15;;;0.95;;
33579;SDS011;19909;43.644;-79.438;2023-04-30T04:00:20;1.60;;;1.10;;
33579;SDS011;19909;43.644;-79.438;2023-04-30T04:02:47;0.95;;;0.80;;
33579;SDS011;19909;43.644;-79.438;2023-04-30T04:05:13;0.70;;;0.70;;
33579;SDS011;19909;43.644;-79.438;2023-04-30T04:07:40;1.52;;;1.10;;
33579;SDS011;19909;43.644;-79.438;2023-04-30T04:10:06;1.02;;;0.93;;
33579;SDS011;19909;43.644;-79.438;2023-04-30T04:12:33;1.00;;;0.80;;
33579;SDS011;19909;43.644;-79.438;2023-04-30T04:14:59;1.10;;;0.88;;
33579;SDS011;19909;43.644;-79.438;2023-04-30T04:17:25;0.77;;;0.60;;
33579;SDS011;19909;43.644;-79.438;2023-04-30T04:19:51;1.65;;;0.98;;
33579;SDS011;19909;43.644;-79.438;2023-04-30T04:22:18;0.77;;;0.70;;
33579;SDS011;19909;43.644;-79.438;2023-04-30T04:24:44;0.75;;;0.70;;
33579;SDS011;19909;43.644;-79.438;2023-04-30T04:27:12;1.17;;;0.93;;
33579;SDS011;19909;43.644;-79.438;2023-04-30T04:29:38;0.85;;;0.82;;
33579;SDS011;19909;43.644;-79.438;2023-04-30T04:32:04;0.70;;;0.70;;
33579;SDS011;19909;43.644;-79.438;2023-04-30T04:34:31;1.00;;;0.90;;
33579;SDS011;19909;43.644;-79.438;2023-04-30T04:36:57;1.20;;;0.77;;
33579;SDS011;19909;43.644;-79.438;2023-04-30T04:39:23;1.10;;;0.77;;
33579;SDS011;19909;43.644;-79.438;2023-04-30T04:41:50;1.10;;;0.80;;
33579;SDS011;19909;43.644;-79.438;2023-04-30T04:44:16;1.05;;;0.75;;
33579;SDS011;19909;43.644;-79.438;2023-04-30T04:46:42;0.88;;;0.75;;
33579;SDS011;19909;43.644;-79.438;2023-04-30T04:49:10;1.10;;;0.63;;
33579;SDS011;19909;43.644;-79.438;2023-04-30T04:51:36;1.00;;;0.90;;
33579;SDS011;19909;43.644;-79.438;2023-04-30T04:54:03;0.80;;;0.80;;
33579;SDS011;19909;43.644;-79.438;2023-04-30T04:56:30;1.13;;;0.70;;
33579;SDS011;19909;43.644;-79.438;2023-04-30T04:58:57;1.15;;;0.82;;
33579;SDS011;19909;43.644;-79.438;2023-04-30T05:01:23;1.25;;;0.82;;
33579;SDS011;19909;43.644;-79.438;2023-04-30T05:03:50;1.05;;;0.80;;
33579;SDS011;19909;43.644;-79.438;2023-04-30T05:06:17;0.80;;;0.70;;
33579;SDS011;19909;43.644;-79.438;2023-04-30T05:08:44;0.90;;;0.77;;
33579;SDS011;19909;43.644;-79.438;2023-04-30T05:11:10;1.10;;;0.80;;
33579;SDS011;19909;43.644;-79.438;2023-04-30T05:13:36;0.85;;;0.63;;
33579;SDS011;19909;43.644;-79.438;2023-04-30T05:16:02;1.15;;;0.82;;
33579;SDS011;19909;43.644;-79.438;2023-04-30T05:18:29;0.90;;;0.63;;
33579;SDS011;19909;43.644;-79.438;2023-04-30T05:20:55;0.80;;;0.70;;
33579;SDS011;19909;43.644;-79.438;2023-04-30T05:23:22;0.63;;;0.60;;
33579;SDS011;19909;43.644;-79.438;2023-04-30T05:25:51;1.02;;;0.77;;
33579;SDS011;19909;43.644;-79.438;2023-04-30T05:28:17;0.70;;;0.70;;
33579;SDS011;19909;43.644;-79.438;2023-04-30T05:30:44;1.25;;;0.70;;
33579;SDS011;19909;43.644;-79.438;2023-04-30T05:33:10;1.10;;;0.77;;
33579;SDS011;19909;43.644;-79.438;2023-04-30T05:35:36;1.00;;;0.77;;
33579;SDS011;19909;43.644;-79.438;2023-04-30T05:38:02;0.60;;;0.60;;
33579;SDS011;19909;43.644;-79.438;2023-04-30T05:40:29;0.80;;;0.68;;
33579;SDS011;19909;43.644;-79.438;2023-04-30T05:42:56;0.68;;;0.60;;
33579;SDS011;19909;43.644;-79.438;2023-04-30T05:45:22;0.95;;;0.65;;
33579;SDS011;19909;43.644;-79.438;2023-04-30T05:47:49;0.70;;;0.55;;
33579;SDS011;19909;43.644;-79.438;2023-04-30T05:50:15;0.68;;;0.63;;
33579;SDS011;19909;43.644;-79.438;2023-04-30T05:52:41;0.65;;;0.50;;
33579;SDS011;19909;43.644;-79.438;2023-04-30T05:55:07;1.05;;;0.70;;
33579;SDS011;19909;43.644;-79.438;2023-04-30T05:57:35;0.68;;;0.52;;
33579;SDS011;19909;43.644;-79.438;2023-04-30T06:00:01;0.77;;;0.60;;
33579;SDS011;19909;43.644;-79.438;2023-04-30T06:02:30;0.60;;;0.50;;
33579;SDS011;19909;43.644;-79.438;2023-04-30T06:04:56;0.80;;;0.40;;
33579;SDS011;19909;43.644;-79.438;2023-04-30T06:07:23;0.70;;;0.70;;
33579;SDS011;19909;43.644;-79.438;2023-04-30T06:09:49;0.60;;;0.50;;
33579;SDS011;19909;43.644;-79.438;2023-04-30T06:12:15;0.73;;;0.40;;
33579;SDS011;19909;43.644;-79.438;2023-04-30T06:14:41;0.57;;;0.50;;
33579;SDS011;19909;43.644;-79.438;2023-04-30T06:17:09;0.93;;;0.57;;
33579;SDS011;19909;43.644;-79.438;2023-04-30T06:19:36;0.50;;;0.40;;
33579;SDS011;19909;43.644;-79.438;2023-04-30T06:22:03;1.05;;;0.70;;
33579;SDS011;19909;43.644;-79.438;2023-04-30T06:24:29;0.57;;;0.40;;
33579;SDS011;19909;43.644;-79.438;2023-04-30T06:26:55;0.60;;;0.50;;
33579;SDS011;19909;43.644;-79.438;2023-04-30T06:29:21;0.52;;;0.50;;
33579;SDS011;19909;43.644;-79.438;2023-04-30T06:31:49;1.02;;;0.60;;
33579;SDS011;19909;43.644;-79.438;2023-04-30T06:34:16;1.20;;;0.43;;
33579;SDS011;19909;43.644;-79.438;2023-04-30T06:36:43;0.43;;;0.40;;
33579;SDS011;19909;43.644;-79.438;2023-04-30T06:39:09;0.43;;;0.30;;
33579;SDS011;19909;43.644;-79.438;2023-04-30T06:41:35;0.60;;;0.32;;
33579;SDS011;19909;43.644;-79.438;2023-04-30T06:44:01;0.60;;;0.40;;
33579;SDS011;19909;43.644;-79.438;2023-04-30T06:46:27;0.40;;;0.40;;
33579;SDS011;19909;43.644;-79.438;2023-04-30T06:48:53;1.73;;;0.40;;
33579;SDS011;19909;43.644;-79.438;2023-04-30T06:51:20;0.30;;;0.30;;
33579;SDS011;19909;43.644;-79.438;2023-04-30T06:53:46;0.40;;;0.40;;
33579;SDS011;19909;43.644;-79.438;2023-04-30T06:56:12;0.45;;;0.35;;
33579;SDS011;19909;43.644;-79.438;2023-04-30T06:58:38;0.32;;;0.32;;
33579;SDS011;19909;43.644;-79.438;2023-04-30T07:01:04;0.32;;;0.30;;
33579;SDS011;19909;43.644;-79.438;2023-04-30T07:03:30;0.77;;;0.40;;
33579;SDS011;19909;43.644;-79.438;2023-04-30T07:05:57;0.55;;;0.50;;
33579;SDS011;19909;43.644;-79.438;2023-04-30T07:08:23;0.40;;;0.40;;
33579;SDS011;19909;43.644;-79.438;2023-04-30T07:10:50;0.52;;;0.35;;
33579;SDS011;19909;43.644;-79.438;2023-04-30T07:13:16;0.40;;;0.30;;
33579;SDS011;19909;43.644;-79.438;2023-04-30T07:15:42;0.90;;;0.40;;
33579;SDS011;19909;43.644;-79.438;2023-04-30T07:18:09;0.22;;;0.22;;
33579;SDS011;19909;43.644;-79.438;2023-04-30T07:20:35;0.50;;;0.40;;
33579;SDS011;19909;43.644;-79.438;2023-04-30T07:23:01;0.85;;;0.40;;
33579;SDS011;19909;43.644;-79.438;2023-04-30T07:25:27;0.82;;;0.40;;
33579;SDS011;19909;43.644;-79.438;2023-04-30T07:27:54;0.90;;;0.40;;
33579;SDS011;19909;43.644;-79.438;2023-04-30T07:30:20;0.60;;;0.43;;
33579;SDS011;19909;43.644;-79.438;2023-04-30T07:32:46;0.32;;;0.28;;
33579;SDS011;19909;43.644;-79.438;2023-04-30T07:35:13;0.68;;;0.40;;
33579;SDS011;19909;43.644;-79.438;2023-04-30T07:37:39;0.50;;;0.30;;
33579;SDS011;19909;43.644;-79.438;2023-04-30T07:40:08;0.38;;;0.30;;
33579;SDS011;19909;43.644;-79.438;2023-04-30T07:42:38;0.52;;;0.32;;
33579;SDS011;19909;43.644;-79.438;2023-04-30T07:45:09;0.30;;;0.30;;
33579;SDS011;19909;43.644;-79.438;2023-04-30T07:47:37;0.43;;;0.40;;
33579;SDS011;19909;43.644;-79.438;2023-04-30T07:50:04;0.85;;;0.45;;
33579;SDS011;19909;43.644;-79.438;2023-04-30T07:52:30;0.40;;;0.40;;
33579;SDS011;19909;43.644;-79.438;2023-04-30T07:54:56;0.25;;;0.25;;
33579;SDS011;19909;43.644;-79.438;2023-04-30T07:57:23;0.35;;;0.30;;
33579;SDS011;19909;43.644;-79.438;2023-04-30T07:59:52;0.40;;;0.40;;
33579;SDS011;19909;43.644;-79.438;2023-04-30T08:02:19;0.47;;;0.40;;
33579;SDS011;19909;43.644;-79.438;2023-04-30T08:04:45;0.52;;;0.40;;
33579;SDS011;19909;43.644;-79.438;2023-04-30T08:07:11;0.50;;;0.30;;
33579;SDS011;19909;43.644;-79.438;2023-04-30T08:09:39;0.50;;;0.50;;
33579;SDS011;19909;43.644;-79.438;2023-04-30T08:12:07;0.82;;;0.30;;
33579;SDS011;19909;43.644;-79.438;2023-04-30T08:14:34;0.50;;;0.30;;
33579;SDS011;19909;43.644;-79.438;2023-04-30T08:17:00;0.30;;;0.30;;
33579;SDS011;19909;43.644;-79.438;2023-04-30T08:19:27;0.75;;;0.40;;
33579;SDS011;19909;43.644;-79.438;2023-04-30T08:21:53;0.40;;;0.30;;
33579;SDS011;19909;43.644;-79.438;2023-04-30T08:24:20;0.40;;;0.40;;
33579;SDS011;19909;43.644;-79.438;2023-04-30T08:26:46;0.20;;;0.20;;
33579;SDS011;19909;43.644;-79.438;2023-04-30T08:29:12;0.52;;;0.52;;
33579;SDS011;19909;43.644;-79.438;2023-04-30T08:31:38;0.20;;;0.20;;
33579;SDS011;19909;43.644;-79.438;2023-04-30T08:34:04;0.35;;;0.35;;
33579;SDS011;19909;43.644;-79.438;2023-04-30T08:36:31;0.43;;;0.40;;
33579;SDS011;19909;43.644;-79.438;2023-04-30T08:38:57;1.70;;;0.40;;
33579;SDS011;19909;43.644;-79.438;2023-04-30T08:41:26;0.40;;;0.30;;
33579;SDS011;19909;43.644;-79.438;2023-04-30T08:44:00;0.63;;;0.40;;
33579;SDS011;19909;43.644;-79.438;2023-04-30T08:46:29;0.30;;;0.30;;
33579;SDS011;19909;43.644;-79.438;2023-04-30T08:48:59;0.60;;;0.60;;
33579;SDS011;19909;43.644;-79.438;2023-04-30T08:51:26;0.43;;;0.40;;
33579;SDS011;19909;43.644;-79.438;2023-04-30T08:53:55;0.60;;;0.38;;
33579;SDS011;19909;43.644;-79.438;2023-04-30T08:56:22;0.50;;;0.40;;
33579;SDS011;19909;43.644;-79.438;2023-04-30T08:58:49;0.30;;;0.30;;
33579;SDS011;19909;43.644;-79.438;2023-04-30T09:01:15;0.50;;;0.38;;
33579;SDS011;19909;43.644;-79.438;2023-04-30T09:03:42;0.50;;;0.30;;
33579;SDS011;19909;43.644;-79.438;2023-04-30T09:06:08;0.68;;;0.35;;
33579;SDS011;19909;43.644;-79.438;2023-04-30T09:08:41;0.52;;;0.50;;
33579;SDS011;19909;43.644;-79.438;2023-04-30T09:13:58;0.43;;;0.32;;
33579;SDS011;19909;43.644;-79.438;2023-04-30T09:16:25;0.30;;;0.30;;
33579;SDS011;19909;43.644;-79.438;2023-04-30T09:18:57;0.37;;;0.33;;
33579;SDS011;19909;43.644;-79.438;2023-04-30T09:21:32;0.47;;;0.40;;
33579;SDS011;19909;43.644;-79.438;2023-04-30T09:24:00;0.47;;;0.47;;
33579;SDS011;19909;43.644;-79.438;2023-04-30T09:29:01;0.40;;;0.40;;
33579;SDS011;19909;43.644;-79.438;2023-04-30T09:31:35;0.30;;;0.30;;
33579;SDS011;19909;43.644;-79.438;2023-04-30T09:34:02;0.75;;;0.50;;
33579;SDS011;19909;43.644;-79.438;2023-04-30T09:36:29;0.57;;;0.40;;
33579;SDS011;19909;43.644;-79.438;2023-04-30T09:38:56;1.02;;;0.60;;
33579;SDS011;19909;43.644;-79.438;2023-04-30T09:41:32;0.75;;;0.40;;
33579;SDS011;19909;43.644;-79.438;2023-04-30T09:44:00;0.47;;;0.47;;
33579;SDS011;19909;43.644;-79.438;2023-04-30T09:46:33;0.40;;;0.40;;
33579;SDS011;19909;43.644;-79.438;2023-04-30T09:49:03;0.60;;;0.30;;
33579;SDS011;19909;43.644;-79.438;2023-04-30T09:51:30;0.40;;;0.40;;
33579;SDS011;19909;43.644;-79.438;2023-04-30T09:53:56;0.40;;;0.30;;
33579;SDS011;19909;43.644;-79.438;2023-04-30T09:56:23;0.30;;;0.30;;
33579;SDS011;19909;43.644;-79.438;2023-04-30T09:58:54;0.70;;;0.50;;
33579;SDS011;19909;43.644;-79.438;2023-04-30T10:01:23;0.60;;;0.40;;
33579;SDS011;19909;43.644;-79.438;2023-04-30T10:03:53;0.80;;;0.35;;
33579;SDS011;19909;43.644;-79.438;2023-04-30T10:06:22;0.50;;;0.43;;
33579;SDS011;19909;43.644;-79.438;2023-04-30T10:08:50;0.60;;;0.50;;
33579;SDS011;19909;43.644;-79.438;2023-04-30T10:11:21;0.25;;;0.25;;
33579;SDS011;19909;43.644;-79.438;2023-04-30T10:13:54;0.50;;;0.50;;
33579;SDS011;19909;43.644;-79.438;2023-04-30T10:19:21;0.60;;;0.60;;
33579;SDS011;19909;43.644;-79.438;2023-04-30T10:21:48;0.50;;;0.40;;
33579;SDS011;19909;43.644;-79.438;2023-04-30T10:24:15;0.50;;;0.40;;
33579;SDS011;19909;43.644;-79.438;2023-04-30T10:26:43;0.63;;;0.45;;
33579;SDS011;19909;43.644;-79.438;2023-04-30T10:29:12;0.40;;;0.40;;
33579;SDS011;19909;43.644;-79.438;2023-04-30T10:31:39;0.40;;;0.30;;
33579;SDS011;19909;43.644;-79.438;2023-04-30T10:39:50;0.68;;;0.55;;
33579;SDS011;19909;43.644;-79.438;2023-04-30T10:42:17;0.63;;;0.50;;
33579;SDS011;19909;43.644;-79.438;2023-04-30T10:44:43;0.75;;;0.60;;
33579;SDS011;19909;43.644;-79.438;2023-04-30T10:47:09;0.40;;;0.40;;
33579;SDS011;19909;43.644;-79.438;2023-04-30T10:49:36;0.57;;;0.55;;
33579;SDS011;19909;43.644;-79.438;2023-04-30T10:52:03;0.50;;;0.40;;
33579;SDS011;19909;43.644;-79.438;2023-04-30T10:57:13;0.57;;;0.50;;
33579;SDS011;19909;43.644;-79.438;2023-04-30T10:59:43;0.43;;;0.40;;
33579;SDS011;19909;43.644;-79.438;2023-04-30T11:02:16;0.60;;;0.60;;
33579;SDS011;19909;43.644;-79.438;2023-04-30T11:07:30;0.60;;;0.50;;
33579;SDS011;19909;43.644;-79.438;2023-04-30T11:09:56;0.35;;;0.35;;
33579;SDS011;19909;43.644;-79.438;2023-04-30T11:12:24;0.60;;;0.57;;
33579;SDS011;19909;43.644;-79.438;2023-04-30T11:15:04;0.80;;;0.60;;
33579;SDS011;19909;43.644;-79.438;2023-04-30T11:17:36;0.60;;;0.50;;
33579;SDS011;19909;43.644;-79.438;2023-04-30T11:20:03;1.13;;;0.60;;
33579;SDS011;19909;43.644;-79.438;2023-04-30T11:22:30;0.73;;;0.60;;
33579;SDS011;19909;43.644;-79.438;2023-04-30T11:25:07;0.77;;;0.50;;
33579;SDS011;19909;43.644;-79.438;2023-04-30T11:27:35;0.60;;;0.60;;
33579;SDS011;19909;43.644;-79.438;2023-04-30T11:30:03;0.57;;;0.50;;
33579;SDS011;19909;43.644;-79.438;2023-04-30T11:35:02;0.70;;;0.60;;
33579;SDS011;19909;43.644;-79.438;2023-04-30T11:40:00;0.90;;;0.60;;
33579;SDS011;19909;43.644;-79.438;2023-04-30T11:42:28;0.52;;;0.50;;
33579;SDS011;19909;43.644;-79.438;2023-04-30T11:45:02;0.47;;;0.47;;
33579;SDS011;19909;43.644;-79.438;2023-04-30T11:47:39;0.85;;;0.60;;
33579;SDS011;19909;43.644;-79.438;2023-04-30T11:50:06;0.93;;;0.45;;
33579;SDS011;19909;43.644;-79.438;2023-04-30T11:52:37;0.85;;;0.57;;
33579;SDS011;19909;43.644;-79.438;2023-04-30T11:55:11;0.50;;;0.40;;
33579;SDS011;19909;43.644;-79.438;2023-04-30T11:57:42;2.35;;;0.60;;
33579;SDS011;19909;43.644;-79.438;2023-04-30T12:00:14;0.35;;;0.35;;
33579;SDS011;19909;43.644;-79.438;2023-04-30T12:02:42;0.50;;;0.47;;
33579;SDS011;19909;43.644;-79.438;2023-04-30T12:07:47;1.13;;;0.60;;
33579;SDS011;19909;43.644;-79.438;2023-04-30T12:10:17;0.50;;;0.50;;
33579;SDS011;19909;43.644;-79.438;2023-04-30T12:12:45;0.50;;;0.50;;
33579;SDS011;19909;43.644;-79.438;2023-04-30T12:15:19;0.90;;;0.60;;
33579;SDS011;19909;43.644;-79.438;2023-04-30T12:17:52;0.65;;;0.60;;
33579;SDS011;19909;43.644;-79.438;2023-04-30T12:20:20;0.77;;;0.60;;
33579;SDS011;19909;43.644;-79.438;2023-04-30T12:22:48;0.50;;;0.50;;
33579;SDS011;19909;43.644;-79.438;2023-04-30T12:25:15;0.98;;;0.60;;
33579;SDS011;19909;43.644;-79.438;2023-04-30T12:27:51;0.50;;;0.35;;
33579;SDS011;19909;43.644;-79.438;2023-04-30T12:30:19;0.70;;;0.50;;
33579;SDS011;19909;43.644;-79.438;2023-04-30T12:32:50;0.55;;;0.50;;
33579;SDS011;19909;43.644;-79.438;2023-04-30T12:35:19;0.53;;;0.50;;
33579;SDS011;19909;43.644;-79.438;2023-04-30T12:37:48;0.68;;;0.40;;
33579;SDS011;19909;43.644;-79.438;2023-04-30T12:40:17;0.57;;;0.50;;
33579;SDS011;19909;43.644;-79.438;2023-04-30T12:42:44;0.55;;;0.50;;
33579;SDS011;19909;43.644;-79.438;2023-04-30T12:48:16;0.57;;;0.50;;
33579;SDS011;19909;43.644;-79.438;2023-04-30T12:53:29;0.50;;;0.40;;
33579;SDS011;19909;43.644;-79.438;2023-04-30T12:56:08;0.98;;;0.40;;
33579;SDS011;19909;43.644;-79.438;2023-04-30T12:58:39;1.00;;;0.57;;
33579;SDS011;19909;43.644;-79.438;2023-04-30T13:01:09;0.85;;;0.50;;
33579;SDS011;19909;43.644;-79.438;2023-04-30T13:06:05;0.98;;;0.60;;
33579;SDS011;19909;43.644;-79.438;2023-04-30T13:08:32;0.38;;;0.35;;
33579;SDS011;19909;43.644;-79.438;2023-04-30T13:10:58;1.15;;;0.60;;
33579;SDS011;19909;43.644;-79.438;2023-04-30T13:13:24;0.50;;;0.50;;
33579;SDS011;19909;43.644;-79.438;2023-04-30T13:15:50;1.15;;;0.65;;
33579;SDS011;19909;43.644;-79.438;2023-04-30T13:18:17;0.75;;;0.60;;
33579;SDS011;19909;43.644;-79.438;2023-04-30T13:20:43;0.57;;;0.50;;
33579;SDS011;19909;43.644;-79.438;2023-04-30T13:23:10;0.75;;;0.50;;
33579;SDS011;19909;43.644;-79.438;2023-04-30T13:25:36;0.68;;;0.43;;
33579;SDS011;19909;43.644;-79.438;2023-04-30T13:28:03;0.80;;;0.50;;
33579;SDS011;19909;43.644;-79.438;2023-04-30T13:30:29;1.20;;;0.50;;
33579;SDS011;19909;43.644;-79.438;2023-04-30T13:32:55;0.70;;;0.50;;
33579;SDS011;19909;43.644;-79.438;2023-04-30T13:35:23;0.88;;;0.60;;
33579;SDS011;19909;43.644;-79.438;2023-04-30T13:37:49;0.82;;;0.55;;
33579;SDS011;19909;43.644;-79.438;2023-04-30T13:40:18;0.80;;;0.80;;
33579;SDS011;19909;43.644;-79.438;2023-04-30T13:42:45;1.23;;;0.60;;
33579;SDS011;19909;43.644;-79.438;2023-04-30T13:45:12;0.93;;;0.65;;
33579;SDS011;19909;43.644;-79.438;2023-04-30T13:47:38;0.65;;;0.65;;
33579;SDS011;19909;43.644;-79.438;2023-04-30T13:50:05;1.00;;;0.70;;
33579;SDS011;19909;43.644;-79.438;2023-04-30T13:52:32;0.77;;;0.50;;
33579;SDS011;19909;43.644;-79.438;2023-04-30T13:54:58;0.63;;;0.50;;
33579;SDS011;19909;43.644;-79.438;2023-04-30T13:57:25;1.25;;;0.63;;
33579;SDS011;19909;43.644;-79.438;2023-04-30T13:59:56;0.82;;;0.65;;
33579;SDS011;19909;43.644;-79.438;2023-04-30T14:02:23;0.70;;;0.50;;
33579;SDS011;19909;43.644;-79.438;2023-04-30T14:04:51;0.60;;;0.60;;
33579;SDS011;19909;43.644;-79.438;2023-04-30T14:07:17;0.40;;;0.40;;
33579;SDS011;19909;43.644;-79.438;2023-04-30T14:09:43;0.45;;;0.40;;
33579;SDS011;19909;43.644;-79.438;2023-04-30T14:12:09;0.70;;;0.65;;
33579;SDS011;19909;43.644;-79.438;2023-04-30T14:14:35;0.93;;;0.60;;
33579;SDS011;19909;43.644;-79.438;2023-04-30T14:17:02;0.73;;;0.52;;
33579;SDS011;19909;43.644;-79.438;2023-04-30T14:19:29;1.35;;;0.90;;
33579;SDS011;19909;43.644;-79.438;2023-04-30T14:21:55;1.48;;;0.80;;
33579;SDS011;19909;43.644;-79.438;2023-04-30T14:24:21;0.60;;;0.50;;
33579;SDS011;19909;43.644;-79.438;2023-04-30T14:26:47;1.35;;;0.80;;
33579;SDS011;19909;43.644;-79.438;2023-04-30T14:29:14;0.60;;;0.55;;
33579;SDS011;19909;43.644;-79.438;2023-04-30T14:31:40;0.70;;;0.70;;
33579;SDS011;19909;43.644;-79.438;2023-04-30T14:34:06;0.90;;;0.70;;
33579;SDS011;19909;43.644;-79.438;2023-04-30T14:36:33;0.68;;;0.60;;
33579;SDS011;19909;43.644;-79.438;2023-04-30T14:39:01;0.55;;;0.50;;
33579;SDS011;19909;43.644;-79.438;2023-04-30T14:41:32;0.70;;;0.63;;
33579;SDS011;19909;43.644;-79.438;2023-04-30T14:44:00;0.57;;;0.45;;
33579;SDS011;19909;43.644;-79.438;2023-04-30T14:46:27;0.90;;;0.60;;
33579;SDS011;19909;43.644;-79.438;2023-04-30T14:48:54;0.60;;;0.52;;
33579;SDS011;19909;43.644;-79.438;2023-04-30T14:51:20;0.63;;;0.50;;
33579;SDS011;19909;43.644;-79.438;2023-04-30T14:53:46;1.17;;;0.70;;
33579;SDS011;19909;43.644;-79.438;2023-04-30T14:56:13;0.60;;;0.50;;
33579;SDS011;19909;43.644;-79.438;2023-04-30T14:58:40;0.80;;;0.75;;
33579;SDS011;19909;43.644;-79.438;2023-04-30T15:01:06;1.05;;;0.75;;
33579;SDS011;19909;43.644;-79.438;2023-04-30T15:03:32;0.82;;;0.82;;
33579;SDS011;19909;43.644;-79.438;2023-04-30T15:05:58;1.25;;;0.52;;
33579;SDS011;19909;43.644;-79.438;2023-04-30T15:08:24;0.93;;;0.77;;
33579;SDS011;19909;43.644;-79.438;2023-04-30T15:10:50;1.08;;;0.70;;
33579;SDS011;19909;43.644;-79.438;2023-04-30T15:13:17;0.80;;;0.68;;